首页
METAR-TAF:

METAR-TAF

机场 :

科威特國際機場

科威特, 科威特

纬度: 29-13N, 经度: 047-59E, 海拔: 55米

当前天气观测

该预报发布于58分钟前的11:00 UTC
风速10节,风向西转西北
温度 17°C
湿度 42%
气压 1019 hPa
能见度10公里或以上
散云层高于3000英尺

METAR: OKBK 231100Z 30010KT 9999 SCT030 17/04 Q1019 NOSIG

时间: 14:58 (11:58 UTC)

预报

该预报发布于1小时和13分钟前的10:45 UTC
预报有效从23日的 12点(UTC)到 24日的 18点(UTC)
风速8节,风向西北,有时为18节阵风
能見度: 7000
散云层高于4000英尺
短暂存在
从 23日的 18点(UTC)到 24日的 03点(UTC)
风速3节,风向多变

TAF: OKBK 231045Z 2312/2418 32008G18KT 7000 SCT040 TEMPO 2318/2403 VRB03KT

超过4000个机场的气象观测和天气预报(METAR&TAF报告)。

可查询的气象台以黄色和红色小点在地图上表示。

将鼠标移到小点上方,可查看气象台名称。

然后点击查看天气观测和预报。

如需切换地图:点击带黑十字的绿色按钮放大地图;点击带横线的绿色按钮缩小地图;或者点击绿色箭头查看邻近地区的地图。


METAR-TAF: